sensor_id;sensor_type;location;lat;lon;timestamp;P1;durP1;ratioP1;P2;durP2;ratioP2
29430;SDS011;16404;49.902;10.074;2022-12-29T00:00:37;4.95;;;2.35;;
29430;SDS011;16404;49.902;10.074;2022-12-29T00:03:22;3.35;;;2.30;;
29430;SDS011;16404;49.902;10.074;2022-12-29T00:06:07;2.95;;;2.42;;
29430;SDS011;16404;49.902;10.074;2022-12-29T00:08:51;3.95;;;2.42;;
29430;SDS011;16404;49.902;10.074;2022-12-29T00:11:36;3.65;;;2.33;;
29430;SDS011;16404;49.902;10.074;2022-12-29T00:14:21;3.17;;;2.47;;
29430;SDS011;16404;49.902;10.074;2022-12-29T00:17:24;3.20;;;2.20;;
29430;SDS011;16404;49.902;10.074;2022-12-29T00:20:08;3.58;;;2.28;;
29430;SDS011;16404;49.902;10.074;2022-12-29T00:23:12;4.93;;;2.15;;
29430;SDS011;16404;49.902;10.074;2022-12-29T00:26:15;2.95;;;2.25;;
29430;SDS011;16404;49.902;10.074;2022-12-29T00:29:19;4.38;;;2.33;;
29430;SDS011;16404;49.902;10.074;2022-12-29T00:32:22;3.88;;;2.33;;
29430;SDS011;16404;49.902;10.074;2022-12-29T00:35:33;2.42;;;2.13;;
29430;SDS011;16404;49.902;10.074;2022-12-29T00:38:25;3.17;;;2.35;;
29430;SDS011;16404;49.902;10.074;2022-12-29T00:41:29;5.28;;;2.28;;
29430;SDS011;16404;49.902;10.074;2022-12-29T00:44:32;3.88;;;2.38;;
29430;SDS011;16404;49.902;10.074;2022-12-29T00:47:17;6.45;;;2.47;;
29430;SDS011;16404;49.902;10.074;2022-12-29T00:50:01;2.83;;;2.28;;
29430;SDS011;16404;49.902;10.074;2022-12-29T00:52:46;2.95;;;2.15;;
29430;SDS011;16404;49.902;10.074;2022-12-29T00:55:30;4.80;;;1.98;;
29430;SDS011;16404;49.902;10.074;2022-12-29T00:58:15;4.60;;;2.30;;
29430;SDS011;16404;49.902;10.074;2022-12-29T01:01:01;7.30;;;2.58;;
29430;SDS011;16404;49.902;10.074;2022-12-29T01:03:49;4.95;;;2.83;;
29430;SDS011;16404;49.902;10.074;2022-12-29T01:06:35;5.30;;;2.70;;
29430;SDS011;16404;49.902;10.074;2022-12-29T01:09:20;4.88;;;2.92;;
29430;SDS011;16404;49.902;10.074;2022-12-29T01:12:25;4.38;;;2.70;;
29430;SDS011;16404;49.902;10.074;2022-12-29T01:15:26;4.20;;;2.53;;
29430;SDS011;16404;49.902;10.074;2022-12-29T01:18:11;3.05;;;2.60;;
29430;SDS011;16404;49.902;10.074;2022-12-29T01:20:59;4.05;;;2.78;;
29430;SDS011;16404;49.902;10.074;2022-12-29T01:23:44;3.58;;;2.20;;
29430;SDS011;16404;49.902;10.074;2022-12-29T01:26:29;3.58;;;2.40;;
29430;SDS011;16404;49.902;10.074;2022-12-29T01:29:14;5.85;;;2.42;;
29430;SDS011;16404;49.902;10.074;2022-12-29T01:31:59;4.97;;;2.47;;
29430;SDS011;16404;49.902;10.074;2022-12-29T01:34:44;5.00;;;2.60;;
29430;SDS011;16404;49.902;10.074;2022-12-29T01:37:29;5.00;;;2.40;;
29430;SDS011;16404;49.902;10.074;2022-12-29T01:40:14;6.00;;;2.70;;
29430;SDS011;16404;49.902;10.074;2022-12-29T01:42:58;3.42;;;2.35;;
29430;SDS011;16404;49.902;10.074;2022-12-29T01:45:44;5.75;;;2.58;;
29430;SDS011;16404;49.902;10.074;2022-12-29T01:48:34;4.60;;;2.30;;
29430;SDS011;16404;49.902;10.074;2022-12-29T01:51:18;4.80;;;2.42;;
29430;SDS011;16404;49.902;10.074;2022-12-29T01:54:07;8.07;;;2.13;;
29430;SDS011;16404;49.902;10.074;2022-12-29T01:57:01;2.67;;;2.17;;
29430;SDS011;16404;49.902;10.074;2022-12-29T01:59:50;4.07;;;2.20;;
29430;SDS011;16404;49.902;10.074;2022-12-29T02:02:46;3.92;;;2.08;;
29430;SDS011;16404;49.902;10.074;2022-12-29T02:05:40;4.18;;;2.15;;
29430;SDS011;16404;49.902;10.074;2022-12-29T02:08:41;2.70;;;2.00;;
29430;SDS011;16404;49.902;10.074;2022-12-29T02:11:30;4.63;;;2.10;;
29430;SDS011;16404;49.902;10.074;2022-12-29T02:14:15;3.28;;;2.30;;
29430;SDS011;16404;49.902;10.074;2022-12-29T02:26:22;3.28;;;2.20;;
29430;SDS011;16404;49.902;10.074;2022-12-29T02:42:05;4.22;;;1.83;;
29430;SDS011;16404;49.902;10.074;2022-12-29T02:51:08;6.63;;;1.92;;
29430;SDS011;16404;49.902;10.074;2022-12-29T02:54:07;3.47;;;2.10;;
29430;SDS011;16404;49.902;10.074;2022-12-29T03:00:06;3.58;;;2.50;;
29430;SDS011;16404;49.902;10.074;2022-12-29T03:12:22;3.75;;;2.10;;
29430;SDS011;16404;49.902;10.074;2022-12-29T03:15:10;8.10;;;3.03;;
29430;SDS011;16404;49.902;10.074;2022-12-29T03:18:25;3.90;;;2.35;;
29430;SDS011;16404;49.902;10.074;2022-12-29T03:21:14;4.57;;;2.38;;
29430;SDS011;16404;49.902;10.074;2022-12-29T03:24:00;4.03;;;2.28;;
29430;SDS011;16404;49.902;10.074;2022-12-29T03:26:46;4.95;;;2.30;;
29430;SDS011;16404;49.902;10.074;2022-12-29T03:29:36;3.88;;;2.22;;
29430;SDS011;16404;49.902;10.074;2022-12-29T03:32:28;6.03;;;2.38;;
29430;SDS011;16404;49.902;10.074;2022-12-29T03:35:20;6.97;;;2.50;;
29430;SDS011;16404;49.902;10.074;2022-12-29T03:38:23;3.60;;;2.25;;
29430;SDS011;16404;49.902;10.074;2022-12-29T03:41:11;5.90;;;2.40;;
29430;SDS011;16404;49.902;10.074;2022-12-29T03:44:02;4.00;;;2.25;;
29430;SDS011;16404;49.902;10.074;2022-12-29T03:46:49;5.72;;;2.25;;
29430;SDS011;16404;49.902;10.074;2022-12-29T03:52:21;6.18;;;2.67;;
29430;SDS011;16404;49.902;10.074;2022-12-29T03:55:07;7.93;;;2.88;;
29430;SDS011;16404;49.902;10.074;2022-12-29T03:57:52;3.75;;;2.63;;
29430;SDS011;16404;49.902;10.074;2022-12-29T04:00:47;4.97;;;2.42;;
29430;SDS011;16404;49.902;10.074;2022-12-29T04:03:32;5.28;;;2.58;;
29430;SDS011;16404;49.902;10.074;2022-12-29T04:06:17;8.30;;;2.45;;
29430;SDS011;16404;49.902;10.074;2022-12-29T04:09:06;9.60;;;2.00;;
29430;SDS011;16404;49.902;10.074;2022-12-29T04:11:56;8.07;;;2.33;;
29430;SDS011;16404;49.902;10.074;2022-12-29T04:14:40;4.78;;;2.47;;
29430;SDS011;16404;49.902;10.074;2022-12-29T04:17:25;5.60;;;2.50;;
29430;SDS011;16404;49.902;10.074;2022-12-29T04:20:11;4.97;;;2.05;;
29430;SDS011;16404;49.902;10.074;2022-12-29T04:23:16;5.70;;;2.20;;
29430;SDS011;16404;49.902;10.074;2022-12-29T04:26:01;5.45;;;2.55;;
29430;SDS011;16404;49.902;10.074;2022-12-29T04:28:47;4.47;;;2.25;;
29430;SDS011;16404;49.902;10.074;2022-12-29T04:31:58;4.57;;;2.40;;
29430;SDS011;16404;49.902;10.074;2022-12-29T04:34:42;3.10;;;2.10;;
29430;SDS011;16404;49.902;10.074;2022-12-29T04:37:27;7.35;;;2.53;;
29430;SDS011;16404;49.902;10.074;2022-12-29T04:40:12;7.28;;;2.30;;
29430;SDS011;16404;49.902;10.074;2022-12-29T04:42:57;5.07;;;2.58;;
29430;SDS011;16404;49.902;10.074;2022-12-29T04:45:46;4.78;;;2.33;;
29430;SDS011;16404;49.902;10.074;2022-12-29T04:48:44;6.20;;;2.47;;
29430;SDS011;16404;49.902;10.074;2022-12-29T04:51:56;3.90;;;2.42;;
29430;SDS011;16404;49.902;10.074;2022-12-29T04:54:41;3.40;;;1.60;;
29430;SDS011;16404;49.902;10.074;2022-12-29T04:57:33;3.28;;;2.20;;
29430;SDS011;16404;49.902;10.074;2022-12-29T05:00:19;5.03;;;2.30;;
29430;SDS011;16404;49.902;10.074;2022-12-29T05:03:04;6.75;;;2.72;;
29430;SDS011;16404;49.902;10.074;2022-12-29T05:05:52;5.40;;;2.22;;
29430;SDS011;16404;49.902;10.074;2022-12-29T05:08:38;7.45;;;2.53;;
29430;SDS011;16404;49.902;10.074;2022-12-29T05:11:23;6.20;;;2.30;;
29430;SDS011;16404;49.902;10.074;2022-12-29T05:14:08;4.13;;;2.17;;
29430;SDS011;16404;49.902;10.074;2022-12-29T05:16:54;8.85;;;2.60;;
29430;SDS011;16404;49.902;10.074;2022-12-29T05:19:39;4.05;;;2.13;;
29430;SDS011;16404;49.902;10.074;2022-12-29T05:25:09;4.18;;;2.08;;
29430;SDS011;16404;49.902;10.074;2022-12-29T05:28:08;4.57;;;2.10;;
29430;SDS011;16404;49.902;10.074;2022-12-29T05:31:13;6.10;;;3.10;;
29430;SDS011;16404;49.902;10.074;2022-12-29T05:33:57;5.47;;;2.30;;
29430;SDS011;16404;49.902;10.074;2022-12-29T05:39:28;6.45;;;2.55;;
29430;SDS011;16404;49.902;10.074;2022-12-29T05:42:17;4.47;;;2.10;;
29430;SDS011;16404;49.902;10.074;2022-12-29T05:45:19;7.53;;;1.88;;
29430;SDS011;16404;49.902;10.074;2022-12-29T05:48:20;6.07;;;2.20;;
29430;SDS011;16404;49.902;10.074;2022-12-29T05:51:25;5.50;;;2.45;;
29430;SDS011;16404;49.902;10.074;2022-12-29T05:54:11;5.88;;;2.45;;
29430;SDS011;16404;49.902;10.074;2022-12-29T05:56:58;6.20;;;2.60;;
29430;SDS011;16404;49.902;10.074;2022-12-29T05:59:42;6.35;;;2.65;;
29430;SDS011;16404;49.902;10.074;2022-12-29T06:02:28;6.45;;;2.88;;
29430;SDS011;16404;49.902;10.074;2022-12-29T06:05:12;2.80;;;2.17;;
29430;SDS011;16404;49.902;10.074;2022-12-29T06:10:42;3.75;;;2.08;;
29430;SDS011;16404;49.902;10.074;2022-12-29T06:13:27;2.45;;;1.77;;
29430;SDS011;16404;49.902;10.074;2022-12-29T06:16:12;2.67;;;1.77;;
29430;SDS011;16404;49.902;10.074;2022-12-29T06:18:57;5.70;;;2.15;;
29430;SDS011;16404;49.902;10.074;2022-12-29T06:21:42;5.85;;;1.95;;
29430;SDS011;16404;49.902;10.074;2022-12-29T06:24:27;4.45;;;2.25;;
29430;SDS011;16404;49.902;10.074;2022-12-29T06:27:12;8.80;;;2.30;;
29430;SDS011;16404;49.902;10.074;2022-12-29T06:29:57;4.18;;;2.40;;
29430;SDS011;16404;49.902;10.074;2022-12-29T06:32:42;4.85;;;2.30;;
29430;SDS011;16404;49.902;10.074;2022-12-29T06:35:29;3.05;;;2.13;;
29430;SDS011;16404;49.902;10.074;2022-12-29T06:38:14;6.00;;;2.30;;
29430;SDS011;16404;49.902;10.074;2022-12-29T06:43:52;3.97;;;1.90;;
29430;SDS011;16404;49.902;10.074;2022-12-29T06:46:42;5.43;;;2.08;;
29430;SDS011;16404;49.902;10.074;2022-12-29T06:49:26;4.18;;;1.77;;
29430;SDS011;16404;49.902;10.074;2022-12-29T06:52:11;2.05;;;1.65;;
29430;SDS011;16404;49.902;10.074;2022-12-29T06:54:55;4.20;;;1.80;;
29430;SDS011;16404;49.902;10.074;2022-12-29T06:57:40;5.07;;;2.00;;
29430;SDS011;16404;49.902;10.074;2022-12-29T07:00:25;4.35;;;1.75;;
29430;SDS011;16404;49.902;10.074;2022-12-29T07:03:09;8.43;;;2.13;;
29430;SDS011;16404;49.902;10.074;2022-12-29T07:05:54;5.10;;;2.28;;
29430;SDS011;16404;49.902;10.074;2022-12-29T07:08:38;3.08;;;2.20;;
29430;SDS011;16404;49.902;10.074;2022-12-29T07:11:23;12.23;;;3.72;;
29430;SDS011;16404;49.902;10.074;2022-12-29T07:14:07;15.52;;;5.22;;
29430;SDS011;16404;49.902;10.074;2022-12-29T07:16:52;6.63;;;2.85;;
29430;SDS011;16404;49.902;10.074;2022-12-29T07:19:37;2.72;;;2.05;;
29430;SDS011;16404;49.902;10.074;2022-12-29T07:22:21;5.80;;;2.00;;
29430;SDS011;16404;49.902;10.074;2022-12-29T07:25:06;3.92;;;2.10;;
29430;SDS011;16404;49.902;10.074;2022-12-29T07:27:51;3.80;;;2.20;;
29430;SDS011;16404;49.902;10.074;2022-12-29T07:30:36;4.30;;;2.20;;
29430;SDS011;16404;49.902;10.074;2022-12-29T07:33:22;2.80;;;1.95;;
29430;SDS011;16404;49.902;10.074;2022-12-29T07:36:07;7.65;;;1.95;;
29430;SDS011;16404;49.902;10.074;2022-12-29T07:38:51;6.63;;;2.60;;
29430;SDS011;16404;49.902;10.074;2022-12-29T07:41:36;5.95;;;2.40;;
29430;SDS011;16404;49.902;10.074;2022-12-29T07:44:20;5.88;;;2.20;;
29430;SDS011;16404;49.902;10.074;2022-12-29T07:47:16;3.55;;;1.95;;
29430;SDS011;16404;49.902;10.074;2022-12-29T07:50:00;4.13;;;2.10;;
29430;SDS011;16404;49.902;10.074;2022-12-29T07:52:45;3.33;;;1.88;;
29430;SDS011;16404;49.902;10.074;2022-12-29T07:55:31;3.40;;;1.95;;
29430;SDS011;16404;49.902;10.074;2022-12-29T07:58:16;4.78;;;2.17;;
29430;SDS011;16404;49.902;10.074;2022-12-29T08:01:00;5.45;;;2.10;;
29430;SDS011;16404;49.902;10.074;2022-12-29T08:03:45;2.65;;;2.10;;
29430;SDS011;16404;49.902;10.074;2022-12-29T08:06:29;5.82;;;2.35;;
29430;SDS011;16404;49.902;10.074;2022-12-29T08:09:14;3.28;;;2.13;;
29430;SDS011;16404;49.902;10.074;2022-12-29T08:11:59;3.83;;;2.50;;
29430;SDS011;16404;49.902;10.074;2022-12-29T08:14:44;3.35;;;2.00;;
29430;SDS011;16404;49.902;10.074;2022-12-29T08:17:28;2.25;;;1.98;;
29430;SDS011;16404;49.902;10.074;2022-12-29T08:20:13;6.63;;;2.80;;
29430;SDS011;16404;49.902;10.074;2022-12-29T08:22:57;5.93;;;2.75;;
29430;SDS011;16404;49.902;10.074;2022-12-29T08:25:42;5.15;;;2.03;;
29430;SDS011;16404;49.902;10.074;2022-12-29T08:28:27;3.35;;;1.90;;
29430;SDS011;16404;49.902;10.074;2022-12-29T08:31:11;5.07;;;1.70;;
29430;SDS011;16404;49.902;10.074;2022-12-29T08:33:56;3.47;;;1.80;;
29430;SDS011;16404;49.902;10.074;2022-12-29T08:36:40;6.03;;;2.10;;
29430;SDS011;16404;49.902;10.074;2022-12-29T08:39:25;3.88;;;1.98;;
29430;SDS011;16404;49.902;10.074;2022-12-29T08:42:10;5.45;;;2.33;;
29430;SDS011;16404;49.902;10.074;2022-12-29T08:44:54;6.10;;;2.95;;
29430;SDS011;16404;49.902;10.074;2022-12-29T08:47:39;4.93;;;2.85;;
29430;SDS011;16404;49.902;10.074;2022-12-29T08:50:24;6.93;;;2.70;;
29430;SDS011;16404;49.902;10.074;2022-12-29T08:53:08;3.67;;;1.90;;
29430;SDS011;16404;49.902;10.074;2022-12-29T08:55:58;3.72;;;1.80;;
29430;SDS011;16404;49.902;10.074;2022-12-29T08:58:43;3.42;;;1.98;;
29430;SDS011;16404;49.902;10.074;2022-12-29T09:01:28;2.20;;;1.47;;
29430;SDS011;16404;49.902;10.074;2022-12-29T09:04:13;4.05;;;1.98;;
29430;SDS011;16404;49.902;10.074;2022-12-29T09:06:58;6.72;;;2.03;;
29430;SDS011;16404;49.902;10.074;2022-12-29T09:09:42;2.35;;;1.80;;
29430;SDS011;16404;49.902;10.074;2022-12-29T09:12:27;2.67;;;1.80;;
29430;SDS011;16404;49.902;10.074;2022-12-29T09:15:12;2.67;;;1.45;;
29430;SDS011;16404;49.902;10.074;2022-12-29T09:17:57;2.38;;;1.70;;
29430;SDS011;16404;49.902;10.074;2022-12-29T09:20:41;5.20;;;2.30;;
29430;SDS011;16404;49.902;10.074;2022-12-29T09:23:26;9.63;;;3.50;;
29430;SDS011;16404;49.902;10.074;2022-12-29T09:28:55;4.20;;;2.45;;
29430;SDS011;16404;49.902;10.074;2022-12-29T09:31:40;3.13;;;1.83;;
29430;SDS011;16404;49.902;10.074;2022-12-29T09:34:25;4.45;;;2.30;;
29430;SDS011;16404;49.902;10.074;2022-12-29T09:37:09;5.78;;;2.58;;
29430;SDS011;16404;49.902;10.074;2022-12-29T09:39:54;6.07;;;2.78;;
29430;SDS011;16404;49.902;10.074;2022-12-29T09:42:44;6.55;;;2.60;;
29430;SDS011;16404;49.902;10.074;2022-12-29T09:45:49;3.70;;;2.33;;
29430;SDS011;16404;49.902;10.074;2022-12-29T09:54:57;3.22;;;2.17;;
29430;SDS011;16404;49.902;10.074;2022-12-29T09:58:01;6.30;;;2.17;;
29430;SDS011;16404;49.902;10.074;2022-12-29T10:03:49;5.32;;;2.13;;
29430;SDS011;16404;49.902;10.074;2022-12-29T10:06:44;5.53;;;2.15;;
29430;SDS011;16404;49.902;10.074;2022-12-29T10:09:51;5.68;;;2.38;;
29430;SDS011;16404;49.902;10.074;2022-12-29T10:16:05;8.50;;;3.05;;
29430;SDS011;16404;49.902;10.074;2022-12-29T10:24:56;4.55;;;2.67;;
29430;SDS011;16404;49.902;10.074;2022-12-29T10:27:47;6.30;;;2.70;;
29430;SDS011;16404;49.902;10.074;2022-12-29T10:30:32;11.35;;;6.07;;
29430;SDS011;16404;49.902;10.074;2022-12-29T10:33:21;6.78;;;2.58;;
29430;SDS011;16404;49.902;10.074;2022-12-29T10:36:17;4.22;;;2.05;;
29430;SDS011;16404;49.902;10.074;2022-12-29T10:44:59;5.07;;;2.13;;
29430;SDS011;16404;49.902;10.074;2022-12-29T10:47:52;4.80;;;2.10;;
29430;SDS011;16404;49.902;10.074;2022-12-29T10:50:41;2.85;;;1.65;;
29430;SDS011;16404;49.902;10.074;2022-12-29T10:53:30;4.75;;;1.90;;
29430;SDS011;16404;49.902;10.074;2022-12-29T10:56:45;2.55;;;1.50;;
29430;SDS011;16404;49.902;10.074;2022-12-29T10:59:35;6.32;;;2.10;;
29430;SDS011;16404;49.902;10.074;2022-12-29T11:02:38;3.50;;;1.70;;
29430;SDS011;16404;49.902;10.074;2022-12-29T11:08:26;2.50;;;1.80;;
29430;SDS011;16404;49.902;10.074;2022-12-29T11:11:21;3.20;;;1.50;;
29430;SDS011;16404;49.902;10.074;2022-12-29T11:14:14;1.80;;;1.70;;
29430;SDS011;16404;49.902;10.074;2022-12-29T11:17:03;3.10;;;1.45;;
29430;SDS011;16404;49.902;10.074;2022-12-29T11:19:48;4.53;;;1.90;;
29430;SDS011;16404;49.902;10.074;2022-12-29T11:22:32;3.45;;;1.67;;
29430;SDS011;16404;49.902;10.074;2022-12-29T11:25:17;4.38;;;1.80;;
29430;SDS011;16404;49.902;10.074;2022-12-29T11:28:03;5.00;;;2.00;;
29430;SDS011;16404;49.902;10.074;2022-12-29T11:30:59;5.78;;;2.10;;
29430;SDS011;16404;49.902;10.074;2022-12-29T11:33:45;4.20;;;2.20;;
29430;SDS011;16404;49.902;10.074;2022-12-29T11:36:30;4.70;;;2.15;;
29430;SDS011;16404;49.902;10.074;2022-12-29T11:42:34;3.22;;;1.83;;
29430;SDS011;16404;49.902;10.074;2022-12-29T11:45:28;5.40;;;2.70;;
29430;SDS011;16404;49.902;10.074;2022-12-29T11:48:17;4.28;;;2.35;;
29430;SDS011;16404;49.902;10.074;2022-12-29T11:51:03;4.43;;;2.10;;
29430;SDS011;16404;49.902;10.074;2022-12-29T11:53:50;5.13;;;1.98;;
29430;SDS011;16404;49.902;10.074;2022-12-29T11:56:38;3.72;;;1.90;;
29430;SDS011;16404;49.902;10.074;2022-12-29T11:59:34;4.47;;;2.33;;
29430;SDS011;16404;49.902;10.074;2022-12-29T12:05:08;3.63;;;2.17;;
29430;SDS011;16404;49.902;10.074;2022-12-29T12:14:02;2.83;;;1.92;;
29430;SDS011;16404;49.902;10.074;2022-12-29T12:17:31;6.68;;;2.28;;
29430;SDS011;16404;49.902;10.074;2022-12-29T12:20:22;3.83;;;2.00;;
29430;SDS011;16404;49.902;10.074;2022-12-29T12:23:19;4.43;;;2.65;;
29430;SDS011;16404;49.902;10.074;2022-12-29T12:26:20;9.88;;;3.38;;
29430;SDS011;16404;49.902;10.074;2022-12-29T12:29:13;3.25;;;2.08;;
29430;SDS011;16404;49.902;10.074;2022-12-29T12:44:15;4.00;;;2.63;;
29430;SDS011;16404;49.902;10.074;2022-12-29T13:01:47;1.10;;;0.93;;
29430;SDS011;16404;49.902;10.074;2022-12-29T13:12:01;4.07;;;2.28;;
29430;SDS011;16404;49.902;10.074;2022-12-29T13:27:21;6.07;;;3.03;;
29430;SDS011;16404;49.902;10.074;2022-12-29T13:38:51;9.20;;;4.82;;
29430;SDS011;16404;49.902;10.074;2022-12-29T13:44:40;8.15;;;4.82;;
29430;SDS011;16404;49.902;10.074;2022-12-29T13:47:39;10.25;;;4.38;;
29430;SDS011;16404;49.902;10.074;2022-12-29T13:50:28;9.45;;;4.20;;
29430;SDS011;16404;49.902;10.074;2022-12-29T13:56:25;7.57;;;4.20;;
29430;SDS011;16404;49.902;10.074;2022-12-29T13:59:40;4.97;;;2.30;;
29430;SDS011;16404;49.902;10.074;2022-12-29T14:05:30;6.75;;;3.97;;
29430;SDS011;16404;49.902;10.074;2022-12-29T14:08:16;9.38;;;3.75;;
29430;SDS011;16404;49.902;10.074;2022-12-29T14:11:05;8.05;;;3.38;;
29430;SDS011;16404;49.902;10.074;2022-12-29T14:13:54;6.03;;;3.30;;
29430;SDS011;16404;49.902;10.074;2022-12-29T14:16:40;5.15;;;2.80;;
29430;SDS011;16404;49.902;10.074;2022-12-29T14:19:26;8.35;;;3.88;;
29430;SDS011;16404;49.902;10.074;2022-12-29T14:22:15;4.68;;;1.80;;
29430;SDS011;16404;49.902;10.074;2022-12-29T14:25:08;6.43;;;2.20;;
29430;SDS011;16404;49.902;10.074;2022-12-29T14:28:44;5.53;;;2.00;;
29430;SDS011;16404;49.902;10.074;2022-12-29T14:37:27;2.97;;;1.40;;
29430;SDS011;16404;49.902;10.074;2022-12-29T14:40:16;2.47;;;1.55;;
29430;SDS011;16404;49.902;10.074;2022-12-29T14:43:25;3.30;;;1.70;;
29430;SDS011;16404;49.902;10.074;2022-12-29T14:46:11;3.42;;;1.67;;
29430;SDS011;16404;49.902;10.074;2022-12-29T14:48:56;4.20;;;2.40;;
29430;SDS011;16404;49.902;10.074;2022-12-29T14:51:44;4.88;;;1.80;;
29430;SDS011;16404;49.902;10.074;2022-12-29T15:00:17;4.07;;;1.60;;
29430;SDS011;16404;49.902;10.074;2022-12-29T15:03:06;4.43;;;2.13;;
29430;SDS011;16404;49.902;10.074;2022-12-29T15:12:14;4.18;;;2.10;;
29430;SDS011;16404;49.902;10.074;2022-12-29T15:15:10;4.47;;;2.35;;
29430;SDS011;16404;49.902;10.074;2022-12-29T15:18:13;4.30;;;2.10;;
29430;SDS011;16404;49.902;10.074;2022-12-29T15:20:59;3.13;;;1.92;;
29430;SDS011;16404;49.902;10.074;2022-12-29T15:23:50;5.57;;;1.60;;
29430;SDS011;16404;49.902;10.074;2022-12-29T15:26:38;4.18;;;1.73;;
29430;SDS011;16404;49.902;10.074;2022-12-29T15:29:31;3.88;;;1.95;;
29430;SDS011;16404;49.902;10.074;2022-12-29T15:32:23;7.43;;;3.05;;
29430;SDS011;16404;49.902;10.074;2022-12-29T15:35:23;14.35;;;4.13;;
29430;SDS011;16404;49.902;10.074;2022-12-29T15:38:14;10.55;;;3.83;;
29430;SDS011;16404;49.902;10.074;2022-12-29T15:41:02;5.40;;;3.50;;
29430;SDS011;16404;49.902;10.074;2022-12-29T15:47:04;6.82;;;3.47;;
29430;SDS011;16404;49.902;10.074;2022-12-29T15:49:53;7.13;;;4.40;;
29430;SDS011;16404;49.902;10.074;2022-12-29T15:53:08;8.23;;;2.97;;
29430;SDS011;16404;49.902;10.074;2022-12-29T15:56:21;12.27;;;5.70;;
29430;SDS011;16404;49.902;10.074;2022-12-29T15:59:18;13.30;;;5.03;;
29430;SDS011;16404;49.902;10.074;2022-12-29T16:02:07;10.30;;;4.70;;
29430;SDS011;16404;49.902;10.074;2022-12-29T16:04:53;9.55;;;4.72;;
29430;SDS011;16404;49.902;10.074;2022-12-29T16:07:38;13.93;;;7.13;;
29430;SDS011;16404;49.902;10.074;2022-12-29T16:10:39;11.85;;;6.07;;
29430;SDS011;16404;49.902;10.074;2022-12-29T16:13:26;12.40;;;6.47;;
29430;SDS011;16404;49.902;10.074;2022-12-29T16:16:33;7.30;;;3.40;;
29430;SDS011;16404;49.902;10.074;2022-12-29T16:19:27;7.30;;;4.82;;
29430;SDS011;16404;49.902;10.074;2022-12-29T16:22:29;7.22;;;3.78;;
29430;SDS011;16404;49.902;10.074;2022-12-29T16:28:14;20.13;;;8.07;;
29430;SDS011;16404;49.902;10.074;2022-12-29T16:31:03;9.65;;;5.72;;
29430;SDS011;16404;49.902;10.074;2022-12-29T16:33:53;7.78;;;4.32;;
29430;SDS011;16404;49.902;10.074;2022-12-29T16:36:40;4.15;;;2.05;;
29430;SDS011;16404;49.902;10.074;2022-12-29T16:39:40;4.30;;;2.00;;
29430;SDS011;16404;49.902;10.074;2022-12-29T16:48:31;10.13;;;3.60;;
29430;SDS011;16404;49.902;10.074;2022-12-29T16:51:31;7.40;;;2.78;;
29430;SDS011;16404;49.902;10.074;2022-12-29T16:54:20;3.53;;;2.25;;
29430;SDS011;16404;49.902;10.074;2022-12-29T16:57:14;6.72;;;4.07;;
29430;SDS011;16404;49.902;10.074;2022-12-29T16:59:59;8.77;;;3.75;;
29430;SDS011;16404;49.902;10.074;2022-12-29T17:02:59;8.32;;;3.45;;
29430;SDS011;16404;49.902;10.074;2022-12-29T17:05:45;8.82;;;4.70;;
29430;SDS011;16404;49.902;10.074;2022-12-29T17:08:38;16.70;;;6.78;;
29430;SDS011;16404;49.902;10.074;2022-12-29T17:11:32;24.85;;;12.90;;
29430;SDS011;16404;49.902;10.074;2022-12-29T17:17:35;24.20;;;11.25;;
29430;SDS011;16404;49.902;10.074;2022-12-29T17:20:24;15.60;;;8.93;;
29430;SDS011;16404;49.902;10.074;2022-12-29T17:23:16;9.73;;;5.68;;
29430;SDS011;16404;49.902;10.074;2022-12-29T17:26:01;9.07;;;5.00;;
29430;SDS011;16404;49.902;10.074;2022-12-29T17:28:46;9.23;;;4.15;;
29430;SDS011;16404;49.902;10.074;2022-12-29T17:31:30;8.63;;;5.32;;
29430;SDS011;16404;49.902;10.074;2022-12-29T17:34:15;5.85;;;2.72;;
29430;SDS011;16404;49.902;10.074;2022-12-29T17:37:00;5.45;;;2.58;;
29430;SDS011;16404;49.902;10.074;2022-12-29T17:43:48;6.47;;;4.10;;
29430;SDS011;16404;49.902;10.074;2022-12-29T17:46:34;6.88;;;3.03;;
29430;SDS011;16404;49.902;10.074;2022-12-29T17:49:18;7.85;;;4.43;;
29430;SDS011;16404;49.902;10.074;2022-12-29T17:52:03;5.75;;;3.80;;
29430;SDS011;16404;49.902;10.074;2022-12-29T17:57:34;6.93;;;4.97;;
29430;SDS011;16404;49.902;10.074;2022-12-29T18:00:23;7.80;;;5.40;;
29430;SDS011;16404;49.902;10.074;2022-12-29T18:03:14;11.73;;;8.80;;
29430;SDS011;16404;49.902;10.074;2022-12-29T18:06:00;9.13;;;5.75;;
29430;SDS011;16404;49.902;10.074;2022-12-29T18:08:45;4.82;;;3.53;;
29430;SDS011;16404;49.902;10.074;2022-12-29T18:11:30;5.07;;;3.70;;
29430;SDS011;16404;49.902;10.074;2022-12-29T18:14:15;10.27;;;5.60;;
29430;SDS011;16404;49.902;10.074;2022-12-29T18:17:00;10.57;;;3.17;;
29430;SDS011;16404;49.902;10.074;2022-12-29T18:19:44;15.50;;;9.32;;
29430;SDS011;16404;49.902;10.074;2022-12-29T18:22:29;14.63;;;8.32;;
29430;SDS011;16404;49.902;10.074;2022-12-29T18:29:20;10.60;;;4.85;;
29430;SDS011;16404;49.902;10.074;2022-12-29T18:32:07;11.38;;;4.82;;
29430;SDS011;16404;49.902;10.074;2022-12-29T18:34:55;11.65;;;5.85;;
29430;SDS011;16404;49.902;10.074;2022-12-29T18:37:39;11.23;;;5.22;;
29430;SDS011;16404;49.902;10.074;2022-12-29T18:40:24;11.55;;;4.03;;
29430;SDS011;16404;49.902;10.074;2022-12-29T18:43:15;13.75;;;5.18;;
29430;SDS011;16404;49.902;10.074;2022-12-29T18:46:01;22.13;;;8.82;;
29430;SDS011;16404;49.902;10.074;2022-12-29T18:48:45;18.00;;;10.30;;
29430;SDS011;16404;49.902;10.074;2022-12-29T18:51:30;12.38;;;5.38;;
29430;SDS011;16404;49.902;10.074;2022-12-29T18:54:25;11.25;;;5.00;;
29430;SDS011;16404;49.902;10.074;2022-12-29T18:57:14;14.35;;;5.55;;
29430;SDS011;16404;49.902;10.074;2022-12-29T18:59:59;15.57;;;6.13;;
29430;SDS011;16404;49.902;10.074;2022-12-29T19:02:44;13.68;;;5.72;;
29430;SDS011;16404;49.902;10.074;2022-12-29T19:05:31;16.75;;;6.50;;
29430;SDS011;16404;49.902;10.074;2022-12-29T19:08:19;14.10;;;6.43;;
29430;SDS011;16404;49.902;10.074;2022-12-29T19:11:04;10.93;;;4.85;;
29430;SDS011;16404;49.902;10.074;2022-12-29T19:13:49;10.65;;;4.25;;
29430;SDS011;16404;49.902;10.074;2022-12-29T19:16:33;15.82;;;7.07;;
29430;SDS011;16404;49.902;10.074;2022-12-29T19:19:18;8.52;;;4.57;;
29430;SDS011;16404;49.902;10.074;2022-12-29T19:22:02;8.90;;;3.70;;
29430;SDS011;16404;49.902;10.074;2022-12-29T19:24:47;8.60;;;3.22;;
29430;SDS011;16404;49.902;10.074;2022-12-29T19:27:32;10.70;;;5.60;;
29430;SDS011;16404;49.902;10.074;2022-12-29T19:33:02;11.57;;;4.55;;
29430;SDS011;16404;49.902;10.074;2022-12-29T19:35:47;8.05;;;4.70;;
29430;SDS011;16404;49.902;10.074;2022-12-29T19:38:33;9.10;;;5.97;;
29430;SDS011;16404;49.902;10.074;2022-12-29T19:41:17;21.38;;;9.35;;
29430;SDS011;16404;49.902;10.074;2022-12-29T19:44:02;17.13;;;9.93;;
29430;SDS011;16404;49.902;10.074;2022-12-29T19:46:46;18.08;;;10.98;;
29430;SDS011;16404;49.902;10.074;2022-12-29T19:49:31;34.38;;;19.75;;
29430;SDS011;16404;49.902;10.074;2022-12-29T19:52:17;15.75;;;6.72;;
29430;SDS011;16404;49.902;10.074;2022-12-29T19:55:02;19.15;;;9.73;;
29430;SDS011;16404;49.902;10.074;2022-12-29T20:00:31;22.75;;;10.38;;
29430;SDS011;16404;49.902;10.074;2022-12-29T20:03:15;33.78;;;15.85;;
29430;SDS011;16404;49.902;10.074;2022-12-29T20:06:01;27.83;;;14.80;;
29430;SDS011;16404;49.902;10.074;2022-12-29T20:08:46;41.35;;;20.65;;
29430;SDS011;16404;49.902;10.074;2022-12-29T20:11:30;35.75;;;17.70;;